sensor_id;sensor_type;location;lat;lon;timestamp;temperature;humidity
17442;DHT22;8838;50.144;8.176;2023-04-25T00:01:39;7.40;99.90
17442;DHT22;8838;50.144;8.176;2023-04-25T00:04:06;7.30;99.90
17442;DHT22;8838;50.144;8.176;2023-04-25T00:06:34;7.20;99.90
17442;DHT22;8838;50.144;8.176;2023-04-25T00:09:03;7.20;99.90
17442;DHT22;8838;50.144;8.176;2023-04-25T00:11:32;7.10;99.90
17442;DHT22;8838;50.144;8.176;2023-04-25T00:13:59;7.00;99.90
17442;DHT22;8838;50.144;8.176;2023-04-25T00:16:27;7.00;99.90
17442;DHT22;8838;50.144;8.176;2023-04-25T00:18:54;7.00;99.90
17442;DHT22;8838;50.144;8.176;2023-04-25T00:21:21;6.90;99.90
17442;DHT22;8838;50.144;8.176;2023-04-25T00:23:49;6.90;99.90
17442;DHT22;8838;50.144;8.176;2023-04-25T00:26:19;6.80;99.90
17442;DHT22;8838;50.144;8.176;2023-04-25T00:28:46;6.90;99.90
17442;DHT22;8838;50.144;8.176;2023-04-25T00:31:13;7.00;99.90
17442;DHT22;8838;50.144;8.176;2023-04-25T00:33:40;7.10;99.90
17442;DHT22;8838;50.144;8.176;2023-04-25T00:36:07;7.10;99.90
17442;DHT22;8838;50.144;8.176;2023-04-25T00:38:34;7.10;99.90
17442;DHT22;8838;50.144;8.176;2023-04-25T00:41:04;7.10;99.90
17442;DHT22;8838;50.144;8.176;2023-04-25T00:43:33;7.20;99.90
17442;DHT22;8838;50.144;8.176;2023-04-25T00:46:00;7.10;99.90
17442;DHT22;8838;50.144;8.176;2023-04-25T00:48:27;7.10;99.90
17442;DHT22;8838;50.144;8.176;2023-04-25T00:50:58;7.10;99.90
17442;DHT22;8838;50.144;8.176;2023-04-25T00:53:27;7.10;99.90
17442;DHT22;8838;50.144;8.176;2023-04-25T00:55:54;7.10;99.90
17442;DHT22;8838;50.144;8.176;2023-04-25T00:58:22;7.00;99.90
17442;DHT22;8838;50.144;8.176;2023-04-25T01:00:51;7.00;99.90
17442;DHT22;8838;50.144;8.176;2023-04-25T01:03:18;7.10;99.90
17442;DHT22;8838;50.144;8.176;2023-04-25T01:05:46;7.00;99.90
17442;DHT22;8838;50.144;8.176;2023-04-25T01:08:14;7.10;99.90
17442;DHT22;8838;50.144;8.176;2023-04-25T01:10:41;7.00;99.90
17442;DHT22;8838;50.144;8.176;2023-04-25T01:13:08;7.00;99.90
17442;DHT22;8838;50.144;8.176;2023-04-25T01:15:35;7.00;99.90
17442;DHT22;8838;50.144;8.176;2023-04-25T01:18:04;7.00;99.90
17442;DHT22;8838;50.144;8.176;2023-04-25T01:20:32;7.00;99.90
17442;DHT22;8838;50.144;8.176;2023-04-25T01:23:01;6.90;99.90
17442;DHT22;8838;50.144;8.176;2023-04-25T01:25:29;7.00;99.90
17442;DHT22;8838;50.144;8.176;2023-04-25T01:27:56;7.00;99.90
17442;DHT22;8838;50.144;8.176;2023-04-25T01:30:24;7.00;99.90
17442;DHT22;8838;50.144;8.176;2023-04-25T01:32:53;7.00;99.90
17442;DHT22;8838;50.144;8.176;2023-04-25T01:35:20;7.00;99.90
17442;DHT22;8838;50.144;8.176;2023-04-25T01:37:49;7.00;99.90
17442;DHT22;8838;50.144;8.176;2023-04-25T01:40:17;7.00;99.90
17442;DHT22;8838;50.144;8.176;2023-04-25T01:42:45;6.90;99.90
17442;DHT22;8838;50.144;8.176;2023-04-25T01:45:12;7.00;99.90
17442;DHT22;8838;50.144;8.176;2023-04-25T01:47:39;6.90;99.90
17442;DHT22;8838;50.144;8.176;2023-04-25T01:50:09;6.90;99.90
17442;DHT22;8838;50.144;8.176;2023-04-25T01:52:36;7.00;99.90
17442;DHT22;8838;50.144;8.176;2023-04-25T01:55:03;7.00;99.90
17442;DHT22;8838;50.144;8.176;2023-04-25T01:57:32;6.90;99.90
17442;DHT22;8838;50.144;8.176;2023-04-25T02:00:00;6.80;99.90
17442;DHT22;8838;50.144;8.176;2023-04-25T02:02:28;6.80;99.90
17442;DHT22;8838;50.144;8.176;2023-04-25T02:04:54;6.80;99.90
17442;DHT22;8838;50.144;8.176;2023-04-25T02:07:21;6.90;99.90
17442;DHT22;8838;50.144;8.176;2023-04-25T02:09:48;6.80;99.90
17442;DHT22;8838;50.144;8.176;2023-04-25T02:12:15;6.80;99.90
17442;DHT22;8838;50.144;8.176;2023-04-25T02:14:43;6.80;99.90
17442;DHT22;8838;50.144;8.176;2023-04-25T02:17:10;6.80;99.90
17442;DHT22;8838;50.144;8.176;2023-04-25T02:19:38;6.80;99.90
17442;DHT22;8838;50.144;8.176;2023-04-25T02:22:04;6.80;99.90
17442;DHT22;8838;50.144;8.176;2023-04-25T02:24:31;6.70;99.90
17442;DHT22;8838;50.144;8.176;2023-04-25T02:26:59;6.70;99.90
17442;DHT22;8838;50.144;8.176;2023-04-25T02:29:26;6.70;99.90
17442;DHT22;8838;50.144;8.176;2023-04-25T02:31:54;6.70;99.90
17442;DHT22;8838;50.144;8.176;2023-04-25T02:34:21;6.70;99.90
17442;DHT22;8838;50.144;8.176;2023-04-25T02:36:48;6.70;99.90
17442;DHT22;8838;50.144;8.176;2023-04-25T02:39:16;6.70;99.90
17442;DHT22;8838;50.144;8.176;2023-04-25T02:41:42;6.60;99.90
17442;DHT22;8838;50.144;8.176;2023-04-25T02:44:09;6.60;99.90
17442;DHT22;8838;50.144;8.176;2023-04-25T02:46:36;6.50;99.90
17442;DHT22;8838;50.144;8.176;2023-04-25T02:49:04;6.50;99.90
17442;DHT22;8838;50.144;8.176;2023-04-25T02:51:31;6.40;99.90
17442;DHT22;8838;50.144;8.176;2023-04-25T02:53:58;6.40;99.90
17442;DHT22;8838;50.144;8.176;2023-04-25T02:56:25;6.40;99.90
17442;DHT22;8838;50.144;8.176;2023-04-25T02:58:52;6.40;99.90
17442;DHT22;8838;50.144;8.176;2023-04-25T03:01:19;6.50;99.90
17442;DHT22;8838;50.144;8.176;2023-04-25T03:03:46;6.50;99.90
17442;DHT22;8838;50.144;8.176;2023-04-25T03:06:14;6.50;99.90
17442;DHT22;8838;50.144;8.176;2023-04-25T03:08:41;6.50;99.90
17442;DHT22;8838;50.144;8.176;2023-04-25T03:11:08;6.50;99.90
17442;DHT22;8838;50.144;8.176;2023-04-25T03:13:35;6.40;99.90
17442;DHT22;8838;50.144;8.176;2023-04-25T03:16:02;6.40;99.90
17442;DHT22;8838;50.144;8.176;2023-04-25T03:18:28;6.30;99.90
17442;DHT22;8838;50.144;8.176;2023-04-25T03:20:55;6.30;99.90
17442;DHT22;8838;50.144;8.176;2023-04-25T03:23:23;6.20;99.90
17442;DHT22;8838;50.144;8.176;2023-04-25T03:25:51;6.00;99.90
17442;DHT22;8838;50.144;8.176;2023-04-25T03:28:18;5.90;99.90
17442;DHT22;8838;50.144;8.176;2023-04-25T03:30:45;5.80;99.90
17442;DHT22;8838;50.144;8.176;2023-04-25T03:33:12;5.60;99.90
17442;DHT22;8838;50.144;8.176;2023-04-25T03:35:39;5.60;99.90
17442;DHT22;8838;50.144;8.176;2023-04-25T03:38:05;5.50;99.90
17442;DHT22;8838;50.144;8.176;2023-04-25T03:40:33;5.40;99.90
17442;DHT22;8838;50.144;8.176;2023-04-25T03:43:00;5.50;99.90
17442;DHT22;8838;50.144;8.176;2023-04-25T03:45:27;5.40;99.90
17442;DHT22;8838;50.144;8.176;2023-04-25T03:47:54;5.40;99.90
17442;DHT22;8838;50.144;8.176;2023-04-25T03:50:20;5.40;99.90
17442;DHT22;8838;50.144;8.176;2023-04-25T03:52:47;5.20;99.90
17442;DHT22;8838;50.144;8.176;2023-04-25T03:55:14;5.20;99.90
17442;DHT22;8838;50.144;8.176;2023-04-25T03:57:42;5.10;99.90
17442;DHT22;8838;50.144;8.176;2023-04-25T04:00:10;5.10;99.90
17442;DHT22;8838;50.144;8.176;2023-04-25T04:02:37;5.00;99.90
17442;DHT22;8838;50.144;8.176;2023-04-25T04:05:04;5.10;99.90
17442;DHT22;8838;50.144;8.176;2023-04-25T04:07:32;5.00;99.90
17442;DHT22;8838;50.144;8.176;2023-04-25T04:10:02;5.00;99.90
17442;DHT22;8838;50.144;8.176;2023-04-25T04:12:30;4.90;99.90
17442;DHT22;8838;50.144;8.176;2023-04-25T04:14:58;4.90;99.90
17442;DHT22;8838;50.144;8.176;2023-04-25T04:17:25;4.80;99.90
17442;DHT22;8838;50.144;8.176;2023-04-25T04:19:52;4.80;99.90
17442;DHT22;8838;50.144;8.176;2023-04-25T04:22:19;4.70;99.90
17442;DHT22;8838;50.144;8.176;2023-04-25T04:24:45;4.60;99.90
17442;DHT22;8838;50.144;8.176;2023-04-25T04:27:12;4.50;99.90
17442;DHT22;8838;50.144;8.176;2023-04-25T04:29:39;4.50;99.90
17442;DHT22;8838;50.144;8.176;2023-04-25T04:32:08;4.60;99.90
17442;DHT22;8838;50.144;8.176;2023-04-25T04:34:35;4.50;99.90
17442;DHT22;8838;50.144;8.176;2023-04-25T04:37:01;4.40;99.90
17442;DHT22;8838;50.144;8.176;2023-04-25T04:39:28;4.50;99.90
17442;DHT22;8838;50.144;8.176;2023-04-25T04:41:55;4.40;99.90
17442;DHT22;8838;50.144;8.176;2023-04-25T04:44:22;4.40;99.90
17442;DHT22;8838;50.144;8.176;2023-04-25T04:46:49;4.50;99.90
17442;DHT22;8838;50.144;8.176;2023-04-25T04:49:17;4.50;99.90
17442;DHT22;8838;50.144;8.176;2023-04-25T04:51:44;4.50;99.90
17442;DHT22;8838;50.144;8.176;2023-04-25T04:54:11;4.60;99.90
17442;DHT22;8838;50.144;8.176;2023-04-25T04:56:38;4.70;99.90
17442;DHT22;8838;50.144;8.176;2023-04-25T04:59:05;4.60;99.90
17442;DHT22;8838;50.144;8.176;2023-04-25T05:01:36;4.60;99.90
17442;DHT22;8838;50.144;8.176;2023-04-25T05:04:02;4.60;99.90
17442;DHT22;8838;50.144;8.176;2023-04-25T05:06:31;4.70;99.90
17442;DHT22;8838;50.144;8.176;2023-04-25T05:09:01;4.80;99.90
17442;DHT22;8838;50.144;8.176;2023-04-25T05:11:28;4.80;99.90
17442;DHT22;8838;50.144;8.176;2023-04-25T05:13:55;4.80;99.90
17442;DHT22;8838;50.144;8.176;2023-04-25T05:16:22;4.80;99.90
17442;DHT22;8838;50.144;8.176;2023-04-25T05:18:49;4.80;99.90
17442;DHT22;8838;50.144;8.176;2023-04-25T05:21:15;4.80;99.90
17442;DHT22;8838;50.144;8.176;2023-04-25T05:23:44;4.80;99.90
17442;DHT22;8838;50.144;8.176;2023-04-25T05:26:10;4.80;99.90
17442;DHT22;8838;50.144;8.176;2023-04-25T05:28:40;4.90;99.90
17442;DHT22;8838;50.144;8.176;2023-04-25T05:31:09;4.90;99.90
17442;DHT22;8838;50.144;8.176;2023-04-25T05:33:35;4.90;99.90
17442;DHT22;8838;50.144;8.176;2023-04-25T05:36:03;5.00;99.90
17442;DHT22;8838;50.144;8.176;2023-04-25T05:38:33;5.00;99.90
17442;DHT22;8838;50.144;8.176;2023-04-25T05:41:01;4.90;99.90
17442;DHT22;8838;50.144;8.176;2023-04-25T05:43:28;5.00;99.90
17442;DHT22;8838;50.144;8.176;2023-04-25T05:45:55;5.10;99.90
17442;DHT22;8838;50.144;8.176;2023-04-25T05:48:21;5.20;99.90
17442;DHT22;8838;50.144;8.176;2023-04-25T05:50:48;5.40;99.90
17442;DHT22;8838;50.144;8.176;2023-04-25T05:53:16;5.50;99.90
17442;DHT22;8838;50.144;8.176;2023-04-25T05:55:43;5.60;99.90
17442;DHT22;8838;50.144;8.176;2023-04-25T05:58:11;5.80;99.90
17442;DHT22;8838;50.144;8.176;2023-04-25T06:00:38;5.80;99.90
17442;DHT22;8838;50.144;8.176;2023-04-25T06:03:07;5.90;99.90
17442;DHT22;8838;50.144;8.176;2023-04-25T06:05:35;6.00;99.90
17442;DHT22;8838;50.144;8.176;2023-04-25T06:08:02;6.10;99.90
17442;DHT22;8838;50.144;8.176;2023-04-25T06:10:29;6.10;99.90
17442;DHT22;8838;50.144;8.176;2023-04-25T06:12:55;6.10;99.90
17442;DHT22;8838;50.144;8.176;2023-04-25T06:15:24;6.20;99.90
17442;DHT22;8838;50.144;8.176;2023-04-25T06:17:51;6.10;99.90
17442;DHT22;8838;50.144;8.176;2023-04-25T06:20:18;6.10;99.90
17442;DHT22;8838;50.144;8.176;2023-04-25T06:22:48;6.00;99.90
17442;DHT22;8838;50.144;8.176;2023-04-25T06:25:15;6.10;99.90
17442;DHT22;8838;50.144;8.176;2023-04-25T06:27:42;6.20;99.90
17442;DHT22;8838;50.144;8.176;2023-04-25T06:30:10;6.20;99.90
17442;DHT22;8838;50.144;8.176;2023-04-25T06:32:39;6.20;99.90
17442;DHT22;8838;50.144;8.176;2023-04-25T06:35:06;6.10;99.90
17442;DHT22;8838;50.144;8.176;2023-04-25T06:37:33;6.00;99.90
17442;DHT22;8838;50.144;8.176;2023-04-25T06:40:00;6.00;99.90
17442;DHT22;8838;50.144;8.176;2023-04-25T06:42:27;6.00;99.90
17442;DHT22;8838;50.144;8.176;2023-04-25T06:44:54;6.00;99.90
17442;DHT22;8838;50.144;8.176;2023-04-25T06:47:21;6.00;99.90
17442;DHT22;8838;50.144;8.176;2023-04-25T06:49:49;6.00;99.90
17442;DHT22;8838;50.144;8.176;2023-04-25T06:52:16;6.00;99.90
17442;DHT22;8838;50.144;8.176;2023-04-25T06:54:44;6.00;99.90
17442;DHT22;8838;50.144;8.176;2023-04-25T06:57:11;6.10;99.90
17442;DHT22;8838;50.144;8.176;2023-04-25T06:59:37;6.20;99.90
17442;DHT22;8838;50.144;8.176;2023-04-25T07:02:04;6.30;99.90
17442;DHT22;8838;50.144;8.176;2023-04-25T07:04:31;6.30;99.90
17442;DHT22;8838;50.144;8.176;2023-04-25T07:07:00;6.40;99.90
17442;DHT22;8838;50.144;8.176;2023-04-25T07:09:28;6.50;99.90
17442;DHT22;8838;50.144;8.176;2023-04-25T07:11:55;6.60;99.90
17442;DHT22;8838;50.144;8.176;2023-04-25T07:14:22;6.80;99.90
17442;DHT22;8838;50.144;8.176;2023-04-25T07:16:48;6.90;99.90
17442;DHT22;8838;50.144;8.176;2023-04-25T07:19:15;7.00;99.90
17442;DHT22;8838;50.144;8.176;2023-04-25T07:21:42;7.10;99.90
17442;DHT22;8838;50.144;8.176;2023-04-25T07:24:10;7.00;99.90
17442;DHT22;8838;50.144;8.176;2023-04-25T07:26:37;6.80;99.90
17442;DHT22;8838;50.144;8.176;2023-04-25T07:29:04;6.70;99.90
17442;DHT22;8838;50.144;8.176;2023-04-25T07:31:31;6.70;99.90
17442;DHT22;8838;50.144;8.176;2023-04-25T07:33:58;6.80;99.90
17442;DHT22;8838;50.144;8.176;2023-04-25T07:36:25;6.80;99.90
17442;DHT22;8838;50.144;8.176;2023-04-25T07:38:52;6.90;99.90
17442;DHT22;8838;50.144;8.176;2023-04-25T07:41:20;6.90;99.90
17442;DHT22;8838;50.144;8.176;2023-04-25T07:43:47;7.10;99.90
17442;DHT22;8838;50.144;8.176;2023-04-25T07:46:14;7.10;99.90
17442;DHT22;8838;50.144;8.176;2023-04-25T07:48:41;7.10;99.90
17442;DHT22;8838;50.144;8.176;2023-04-25T07:51:08;7.10;99.90
17442;DHT22;8838;50.144;8.176;2023-04-25T07:53:35;7.00;99.90
17442;DHT22;8838;50.144;8.176;2023-04-25T07:56:03;7.10;99.90
17442;DHT22;8838;50.144;8.176;2023-04-25T07:58:31;7.40;99.90
17442;DHT22;8838;50.144;8.176;2023-04-25T08:00:58;7.70;99.90
17442;DHT22;8838;50.144;8.176;2023-04-25T08:03:25;7.80;99.90
17442;DHT22;8838;50.144;8.176;2023-04-25T08:05:52;7.70;99.90
17442;DHT22;8838;50.144;8.176;2023-04-25T08:08:19;7.50;99.90
17442;DHT22;8838;50.144;8.176;2023-04-25T08:10:46;7.60;99.90
17442;DHT22;8838;50.144;8.176;2023-04-25T08:13:13;8.10;99.90
17442;DHT22;8838;50.144;8.176;2023-04-25T08:15:43;8.30;99.90
17442;DHT22;8838;50.144;8.176;2023-04-25T08:18:10;8.10;99.90
17442;DHT22;8838;50.144;8.176;2023-04-25T08:20:37;7.90;99.90
17442;DHT22;8838;50.144;8.176;2023-04-25T08:23:03;7.70;99.90
17442;DHT22;8838;50.144;8.176;2023-04-25T08:25:30;7.60;99.90
17442;DHT22;8838;50.144;8.176;2023-04-25T08:27:57;7.60;99.90
17442;DHT22;8838;50.144;8.176;2023-04-25T08:30:25;7.60;99.90
17442;DHT22;8838;50.144;8.176;2023-04-25T08:32:54;7.70;99.90
17442;DHT22;8838;50.144;8.176;2023-04-25T08:35:21;7.70;99.90
17442;DHT22;8838;50.144;8.176;2023-04-25T08:37:48;8.00;99.90
17442;DHT22;8838;50.144;8.176;2023-04-25T08:40:15;8.00;99.90
17442;DHT22;8838;50.144;8.176;2023-04-25T08:42:42;8.10;99.90
17442;DHT22;8838;50.144;8.176;2023-04-25T08:45:10;8.00;99.90
17442;DHT22;8838;50.144;8.176;2023-04-25T08:47:38;8.20;99.90
17442;DHT22;8838;50.144;8.176;2023-04-25T08:50:07;8.40;99.90
17442;DHT22;8838;50.144;8.176;2023-04-25T08:52:36;8.40;99.90
17442;DHT22;8838;50.144;8.176;2023-04-25T08:55:05;8.20;99.90
17442;DHT22;8838;50.144;8.176;2023-04-25T08:57:34;8.00;99.90
17442;DHT22;8838;50.144;8.176;2023-04-25T09:00:01;8.00;99.90
17442;DHT22;8838;50.144;8.176;2023-04-25T09:02:29;8.10;99.90
17442;DHT22;8838;50.144;8.176;2023-04-25T09:04:56;8.30;99.90
17442;DHT22;8838;50.144;8.176;2023-04-25T09:07:25;8.80;99.90
17442;DHT22;8838;50.144;8.176;2023-04-25T09:09:51;9.00;99.90
17442;DHT22;8838;50.144;8.176;2023-04-25T09:12:19;9.00;99.90
17442;DHT22;8838;50.144;8.176;2023-04-25T09:15:03;8.90;99.90
17442;DHT22;8838;50.144;8.176;2023-04-25T09:17:30;8.90;99.90
17442;DHT22;8838;50.144;8.176;2023-04-25T09:20:06;8.90;99.90
17442;DHT22;8838;50.144;8.176;2023-04-25T09:22:36;8.60;99.90
17442;DHT22;8838;50.144;8.176;2023-04-25T09:25:08;8.40;99.90
17442;DHT22;8838;50.144;8.176;2023-04-25T09:27:35;8.30;99.90
17442;DHT22;8838;50.144;8.176;2023-04-25T09:30:03;8.20;99.90
17442;DHT22;8838;50.144;8.176;2023-04-25T09:32:30;7.90;99.90
17442;DHT22;8838;50.144;8.176;2023-04-25T09:34:57;7.80;99.90
17442;DHT22;8838;50.144;8.176;2023-04-25T09:37:25;7.80;99.90
17442;DHT22;8838;50.144;8.176;2023-04-25T09:39:56;7.80;99.90
17442;DHT22;8838;50.144;8.176;2023-04-25T09:42:24;7.90;99.90
17442;DHT22;8838;50.144;8.176;2023-04-25T09:44:53;8.10;99.90
17442;DHT22;8838;50.144;8.176;2023-04-25T09:47:22;8.20;99.90
17442;DHT22;8838;50.144;8.176;2023-04-25T09:49:50;8.50;99.90
17442;DHT22;8838;50.144;8.176;2023-04-25T09:52:18;9.10;99.90
17442;DHT22;8838;50.144;8.176;2023-04-25T09:54:46;9.50;99.90
17442;DHT22;8838;50.144;8.176;2023-04-25T09:57:16;9.60;99.90
17442;DHT22;8838;50.144;8.176;2023-04-25T09:59:44;9.50;99.90
17442;DHT22;8838;50.144;8.176;2023-04-25T10:02:12;9.30;99.90
17442;DHT22;8838;50.144;8.176;2023-04-25T10:04:40;9.30;99.90
17442;DHT22;8838;50.144;8.176;2023-04-25T10:07:09;9.40;99.90
17442;DHT22;8838;50.144;8.176;2023-04-25T10:09:37;9.60;99.90
17442;DHT22;8838;50.144;8.176;2023-04-25T10:12:06;9.90;99.90
17442;DHT22;8838;50.144;8.176;2023-04-25T10:14:35;9.50;99.90
17442;DHT22;8838;50.144;8.176;2023-04-25T10:17:02;9.30;99.90
17442;DHT22;8838;50.144;8.176;2023-04-25T10:19:29;9.20;99.90
17442;DHT22;8838;50.144;8.176;2023-04-25T10:22:04;9.00;99.90
17442;DHT22;8838;50.144;8.176;2023-04-25T10:24:32;8.90;99.90
17442;DHT22;8838;50.144;8.176;2023-04-25T10:27:00;8.80;99.90
17442;DHT22;8838;50.144;8.176;2023-04-25T10:29:27;8.70;99.90
17442;DHT22;8838;50.144;8.176;2023-04-25T10:31:57;8.60;99.90
17442;DHT22;8838;50.144;8.176;2023-04-25T10:34:25;8.50;99.90
17442;DHT22;8838;50.144;8.176;2023-04-25T10:37:03;8.50;99.90
17442;DHT22;8838;50.144;8.176;2023-04-25T10:39:32;8.30;99.90
17442;DHT22;8838;50.144;8.176;2023-04-25T10:42:02;8.20;99.90
17442;DHT22;8838;50.144;8.176;2023-04-25T10:44:29;8.20;99.90
17442;DHT22;8838;50.144;8.176;2023-04-25T10:47:00;8.30;99.90
17442;DHT22;8838;50.144;8.176;2023-04-25T10:49:30;8.20;99.90
17442;DHT22;8838;50.144;8.176;2023-04-25T10:52:25;8.20;99.90
17442;DHT22;8838;50.144;8.176;2023-04-25T10:54:53;8.20;99.90
17442;DHT22;8838;50.144;8.176;2023-04-25T10:57:31;8.20;99.90
17442;DHT22;8838;50.144;8.176;2023-04-25T11:00:06;8.10;99.90
17442;DHT22;8838;50.144;8.176;2023-04-25T11:02:40;8.20;99.90
17442;DHT22;8838;50.144;8.176;2023-04-25T11:05:08;8.30;99.90
17442;DHT22;8838;50.144;8.176;2023-04-25T11:07:39;8.40;99.90
17442;DHT22;8838;50.144;8.176;2023-04-25T11:10:10;8.60;99.90
17442;DHT22;8838;50.144;8.176;2023-04-25T11:12:36;8.80;99.90
17442;DHT22;8838;50.144;8.176;2023-04-25T11:15:05;8.90;99.90
17442;DHT22;8838;50.144;8.176;2023-04-25T11:17:33;8.90;99.90
17442;DHT22;8838;50.144;8.176;2023-04-25T11:20:01;9.00;99.90
17442;DHT22;8838;50.144;8.176;2023-04-25T11:22:31;9.00;99.90
17442;DHT22;8838;50.144;8.176;2023-04-25T11:25:04;9.10;99.90
17442;DHT22;8838;50.144;8.176;2023-04-25T11:27:31;9.10;99.90
17442;DHT22;8838;50.144;8.176;2023-04-25T11:29:58;9.10;99.90
17442;DHT22;8838;50.144;8.176;2023-04-25T11:32:25;9.00;99.90
17442;DHT22;8838;50.144;8.176;2023-04-25T11:34:53;8.90;99.90
17442;DHT22;8838;50.144;8.176;2023-04-25T11:37:21;8.90;99.90
17442;DHT22;8838;50.144;8.176;2023-04-25T11:39:48;8.80;99.90
17442;DHT22;8838;50.144;8.176;2023-04-25T11:42:15;8.90;99.90
17442;DHT22;8838;50.144;8.176;2023-04-25T11:44:42;9.20;99.90
17442;DHT22;8838;50.144;8.176;2023-04-25T11:47:10;9.50;99.90
17442;DHT22;8838;50.144;8.176;2023-04-25T11:49:36;9.80;99.90
17442;DHT22;8838;50.144;8.176;2023-04-25T11:52:06;10.00;99.90
17442;DHT22;8838;50.144;8.176;2023-04-25T11:54:36;10.00;99.90
17442;DHT22;8838;50.144;8.176;2023-04-25T11:57:03;10.00;99.90
17442;DHT22;8838;50.144;8.176;2023-04-25T11:59:30;9.90;99.90
17442;DHT22;8838;50.144;8.176;2023-04-25T12:01:57;9.90;99.90
17442;DHT22;8838;50.144;8.176;2023-04-25T12:04:30;9.90;99.90
17442;DHT22;8838;50.144;8.176;2023-04-25T12:06:58;9.80;99.90
17442;DHT22;8838;50.144;8.176;2023-04-25T12:09:30;9.90;99.90
17442;DHT22;8838;50.144;8.176;2023-04-25T12:12:00;10.00;99.90
17442;DHT22;8838;50.144;8.176;2023-04-25T12:14:29;10.00;99.90
17442;DHT22;8838;50.144;8.176;2023-04-25T12:16:58;10.00;99.90
17442;DHT22;8838;50.144;8.176;2023-04-25T12:19:25;10.00;99.90
17442;DHT22;8838;50.144;8.176;2023-04-25T12:21:53;9.80;99.90
17442;DHT22;8838;50.144;8.176;2023-04-25T12:24:22;9.70;99.90
17442;DHT22;8838;50.144;8.176;2023-04-25T12:26:52;9.60;99.90
17442;DHT22;8838;50.144;8.176;2023-04-25T12:29:22;9.70;99.90
17442;DHT22;8838;50.144;8.176;2023-04-25T12:31:51;9.90;99.90
17442;DHT22;8838;50.144;8.176;2023-04-25T12:34:18;9.90;99.90
17442;DHT22;8838;50.144;8.176;2023-04-25T12:36:45;9.80;99.90
17442;DHT22;8838;50.144;8.176;2023-04-25T12:39:16;9.70;99.90
17442;DHT22;8838;50.144;8.176;2023-04-25T12:41:43;9.50;99.90
17442;DHT22;8838;50.144;8.176;2023-04-25T12:44:11;9.40;99.90
17442;DHT22;8838;50.144;8.176;2023-04-25T12:46:39;9.50;99.90
17442;DHT22;8838;50.144;8.176;2023-04-25T12:49:07;9.60;99.90
17442;DHT22;8838;50.144;8.176;2023-04-25T12:51:34;9.90;99.90
17442;DHT22;8838;50.144;8.176;2023-04-25T12:54:02;10.30;99.90
17442;DHT22;8838;50.144;8.176;2023-04-25T12:56:30;10.50;99.90
17442;DHT22;8838;50.144;8.176;2023-04-25T12:58:57;10.30;99.90
17442;DHT22;8838;50.144;8.176;2023-04-25T13:01:24;10.10;99.90
17442;DHT22;8838;50.144;8.176;2023-04-25T13:03:53;10.00;99.90
17442;DHT22;8838;50.144;8.176;2023-04-25T13:06:20;10.10;99.90
17442;DHT22;8838;50.144;8.176;2023-04-25T13:08:47;10.10;99.90
17442;DHT22;8838;50.144;8.176;2023-04-25T13:11:14;10.00;99.90
17442;DHT22;8838;50.144;8.176;2023-04-25T13:13:41;9.80;99.90
17442;DHT22;8838;50.144;8.176;2023-04-25T13:16:08;9.90;99.90
17442;DHT22;8838;50.144;8.176;2023-04-25T13:18:35;10.40;99.90
17442;DHT22;8838;50.144;8.176;2023-04-25T13:21:04;10.60;99.90
17442;DHT22;8838;50.144;8.176;2023-04-25T13:23:31;10.50;99.90
17442;DHT22;8838;50.144;8.176;2023-04-25T13:25:59;10.40;99.90
17442;DHT22;8838;50.144;8.176;2023-04-25T13:28:27;10.30;99.90
17442;DHT22;8838;50.144;8.176;2023-04-25T13:30:54;10.60;99.90
17442;DHT22;8838;50.144;8.176;2023-04-25T13:33:20;10.60;99.90
17442;DHT22;8838;50.144;8.176;2023-04-25T13:35:49;10.60;99.90
17442;DHT22;8838;50.144;8.176;2023-04-25T13:38:21;10.30;99.90
17442;DHT22;8838;50.144;8.176;2023-04-25T13:40:48;10.10;99.90
17442;DHT22;8838;50.144;8.176;2023-04-25T13:43:18;10.00;99.90
17442;DHT22;8838;50.144;8.176;2023-04-25T13:45:46;9.90;99.90
17442;DHT22;8838;50.144;8.176;2023-04-25T13:48:13;9.70;99.90
17442;DHT22;8838;50.144;8.176;2023-04-25T13:50:40;9.60;99.90
17442;DHT22;8838;50.144;8.176;2023-04-25T13:53:07;9.60;99.90
17442;DHT22;8838;50.144;8.176;2023-04-25T13:55:35;9.70;99.90
17442;DHT22;8838;50.144;8.176;2023-04-25T13:58:03;9.80;99.90
17442;DHT22;8838;50.144;8.176;2023-04-25T14:00:34;10.30;99.90
17442;DHT22;8838;50.144;8.176;2023-04-25T14:03:01;10.90;99.90
17442;DHT22;8838;50.144;8.176;2023-04-25T14:05:30;11.30;99.90
17442;DHT22;8838;50.144;8.176;2023-04-25T14:07:58;11.30;99.90
17442;DHT22;8838;50.144;8.176;2023-04-25T14:10:25;11.10;99.90
17442;DHT22;8838;50.144;8.176;2023-04-25T14:12:53;10.80;99.90
17442;DHT22;8838;50.144;8.176;2023-04-25T14:15:20;10.50;99.90
17442;DHT22;8838;50.144;8.176;2023-04-25T14:17:47;10.30;99.90
17442;DHT22;8838;50.144;8.176;2023-04-25T14:20:14;10.10;99.90
17442;DHT22;8838;50.144;8.176;2023-04-25T14:22:45;10.00;99.90
17442;DHT22;8838;50.144;8.176;2023-04-25T14:25:12;9.80;99.90
17442;DHT22;8838;50.144;8.176;2023-04-25T14:27:39;9.70;99.90
17442;DHT22;8838;50.144;8.176;2023-04-25T14:30:09;9.60;99.90
17442;DHT22;8838;50.144;8.176;2023-04-25T14:32:37;9.50;99.90
17442;DHT22;8838;50.144;8.176;2023-04-25T14:35:05;9.50;99.90
17442;DHT22;8838;50.144;8.176;2023-04-25T14:37:32;9.50;99.90
17442;DHT22;8838;50.144;8.176;2023-04-25T14:40:00;9.60;99.90
17442;DHT22;8838;50.144;8.176;2023-04-25T14:42:26;9.80;99.90
17442;DHT22;8838;50.144;8.176;2023-04-25T14:44:53;10.00;99.90
17442;DHT22;8838;50.144;8.176;2023-04-25T14:47:22;10.00;99.90
17442;DHT22;8838;50.144;8.176;2023-04-25T14:49:48;10.10;99.90
17442;DHT22;8838;50.144;8.176;2023-04-25T14:52:19;10.20;99.90
17442;DHT22;8838;50.144;8.176;2023-04-25T14:54:46;10.30;99.90
17442;DHT22;8838;50.144;8.176;2023-04-25T14:57:13;10.10;99.90
17442;DHT22;8838;50.144;8.176;2023-04-25T14:59:40;10.10;99.90
17442;DHT22;8838;50.144;8.176;2023-04-25T15:02:07;10.20;99.90
17442;DHT22;8838;50.144;8.176;2023-04-25T15:04:36;10.10;99.90
17442;DHT22;8838;50.144;8.176;2023-04-25T15:07:02;10.10;99.90
17442;DHT22;8838;50.144;8.176;2023-04-25T15:09:30;10.00;99.90
17442;DHT22;8838;50.144;8.176;2023-04-25T15:11:57;10.10;99.90
17442;DHT22;8838;50.144;8.176;2023-04-25T15:14:24;10.30;99.90
17442;DHT22;8838;50.144;8.176;2023-04-25T15:16:51;10.50;99.90
17442;DHT22;8838;50.144;8.176;2023-04-25T15:19:18;10.30;99.90
17442;DHT22;8838;50.144;8.176;2023-04-25T15:21:47;10.30;99.90
17442;DHT22;8838;50.144;8.176;2023-04-25T15:24:13;10.40;99.90
17442;DHT22;8838;50.144;8.176;2023-04-25T15:26:41;10.40;99.90
17442;DHT22;8838;50.144;8.176;2023-04-25T15:29:08;10.50;99.90
17442;DHT22;8838;50.144;8.176;2023-04-25T15:31:36;10.60;99.90
17442;DHT22;8838;50.144;8.176;2023-04-25T15:34:02;10.60;99.90
17442;DHT22;8838;50.144;8.176;2023-04-25T15:36:29;10.70;99.90
17442;DHT22;8838;50.144;8.176;2023-04-25T15:38:58;10.80;99.90
17442;DHT22;8838;50.144;8.176;2023-04-25T15:41:25;10.80;99.90
17442;DHT22;8838;50.144;8.176;2023-04-25T15:43:52;10.80;99.90
17442;DHT22;8838;50.144;8.176;2023-04-25T15:46:19;10.90;99.90
17442;DHT22;8838;50.144;8.176;2023-04-25T15:48:46;11.10;99.90
17442;DHT22;8838;50.144;8.176;2023-04-25T15:51:14;11.10;99.90
17442;DHT22;8838;50.144;8.176;2023-04-25T15:53:41;11.00;99.90
17442;DHT22;8838;50.144;8.176;2023-04-25T15:56:10;10.80;99.90
17442;DHT22;8838;50.144;8.176;2023-04-25T15:58:36;10.60;99.90
17442;DHT22;8838;50.144;8.176;2023-04-25T16:01:03;10.40;99.90
17442;DHT22;8838;50.144;8.176;2023-04-25T16:03:31;10.30;99.90